sensor_id;sensor_type;location;lat;lon;timestamp;pressure;altitude;pressure_sealevel;temperature;humidity
33163;BME280;29282;45.656;11.302;2023-02-28T00:00:35;98875.28;;;18.41;43.97
33163;BME280;29282;45.656;11.302;2023-02-28T00:03:01;98881.59;;;18.41;44.10
33163;BME280;29282;45.656;11.302;2023-02-28T00:05:27;98879.16;;;18.40;44.07
33163;BME280;29282;45.656;11.302;2023-02-28T00:07:54;98877.22;;;18.40;43.94
33163;BME280;29282;45.656;11.302;2023-02-28T00:10:23;98873.66;;;18.40;44.09
33163;BME280;29282;45.656;11.302;2023-02-28T00:12:53;98879.16;;;18.40;43.94
33163;BME280;29282;45.656;11.302;2023-02-28T00:15:19;98890.13;;;18.40;43.96
33163;BME280;29282;45.656;11.302;2023-02-28T00:17:45;98884.63;;;18.40;43.91
33163;BME280;29282;45.656;11.302;2023-02-28T00:20:12;98883.84;;;18.39;44.16
33163;BME280;29282;45.656;11.302;2023-02-28T00:22:40;98894.81;;;18.39;43.96
33163;BME280;29282;45.656;11.302;2023-02-28T00:25:06;98901.09;;;18.40;44.00
33163;BME280;29282;45.656;11.302;2023-02-28T00:27:33;98899.16;;;18.40;43.88
33163;BME280;29282;45.656;11.302;2023-02-28T00:29:59;98899.50;;;18.39;44.04
33163;BME280;29282;45.656;11.302;2023-02-28T00:32:24;98899.50;;;18.39;43.93
33163;BME280;29282;45.656;11.302;2023-02-28T00:34:50;98901.91;;;18.40;43.84
33163;BME280;29282;45.656;11.302;2023-02-28T00:37:15;98903.84;;;18.40;43.98
33163;BME280;29282;45.656;11.302;2023-02-28T00:39:41;98892.06;;;18.39;43.99
33163;BME280;29282;45.656;11.302;2023-02-28T00:42:07;98906.59;;;18.40;43.97
33163;BME280;29282;45.656;11.302;2023-02-28T00:44:33;98897.22;;;18.41;44.00
33163;BME280;29282;45.656;11.302;2023-02-28T00:46:59;98892.88;;;18.40;44.00
33163;BME280;29282;45.656;11.302;2023-02-28T00:49:26;98901.91;;;18.40;43.94
33163;BME280;29282;45.656;11.302;2023-02-28T00:51:53;98897.22;;;18.41;43.83
33163;BME280;29282;45.656;11.302;2023-02-28T00:54:19;98904.66;;;18.40;43.79
33163;BME280;29282;45.656;11.302;2023-02-28T00:56:45;98897.56;;;18.39;43.86
33163;BME280;29282;45.656;11.302;2023-02-28T00:59:11;98900.31;;;18.39;43.83
33163;BME280;29282;45.656;11.302;2023-02-28T01:01:37;98894.00;;;18.39;43.96
33163;BME280;29282;45.656;11.302;2023-02-28T01:04:03;98892.41;;;18.38;43.95
33163;BME280;29282;45.656;11.302;2023-02-28T01:06:30;98898.69;;;18.38;43.87
33163;BME280;29282;45.656;11.302;2023-02-28T01:08:55;98898.69;;;18.38;43.91
33163;BME280;29282;45.656;11.302;2023-02-28T01:11:21;98894.00;;;18.39;43.77
33163;BME280;29282;45.656;11.302;2023-02-28T01:13:47;98903.38;;;18.38;43.94
33163;BME280;29282;45.656;11.302;2023-02-28T01:16:13;98905.78;;;18.39;43.90
33163;BME280;29282;45.656;11.302;2023-02-28T01:18:39;98895.94;;;18.38;43.82
33163;BME280;29282;45.656;11.302;2023-02-28T01:21:06;98899.81;;;18.37;43.97
33163;BME280;29282;45.656;11.302;2023-02-28T01:23:32;98903.38;;;18.38;43.78
33163;BME280;29282;45.656;11.302;2023-02-28T01:26:06;98906.13;;;18.38;43.92
33163;BME280;29282;45.656;11.302;2023-02-28T01:28:33;98916.25;;;18.37;43.75
33163;BME280;29282;45.656;11.302;2023-02-28T01:30:59;98908.03;;;18.37;43.98
33163;BME280;29282;45.656;11.302;2023-02-28T01:33:25;98908.88;;;18.38;43.97
33163;BME280;29282;45.656;11.302;2023-02-28T01:36:01;98907.22;;;18.37;43.99
33163;BME280;29282;45.656;11.302;2023-02-28T01:38:27;98911.91;;;18.36;44.00
33163;BME280;29282;45.656;11.302;2023-02-28T01:40:53;98904.81;;;18.35;43.77
33163;BME280;29282;45.656;11.302;2023-02-28T01:43:28;98911.09;;;18.36;43.89
33163;BME280;29282;45.656;11.302;2023-02-28T01:45:55;98904.00;;;18.35;43.95
33163;BME280;29282;45.656;11.302;2023-02-28T01:48:28;98915.00;;;18.35;43.76
33163;BME280;29282;45.656;11.302;2023-02-28T01:50:57;98918.03;;;18.33;44.00
33163;BME280;29282;45.656;11.302;2023-02-28T01:53:30;98918.84;;;18.34;43.87
33163;BME280;29282;45.656;11.302;2023-02-28T01:55:57;98907.84;;;18.34;43.90
33163;BME280;29282;45.656;11.302;2023-02-28T01:58:23;98917.22;;;18.33;43.94
33163;BME280;29282;45.656;11.302;2023-02-28T02:00:49;98920.78;;;18.33;43.78
33163;BME280;29282;45.656;11.302;2023-02-28T02:03:17;98929.00;;;18.33;43.93
33163;BME280;29282;45.656;11.302;2023-02-28T02:05:46;98931.75;;;18.33;43.94
33163;BME280;29282;45.656;11.302;2023-02-28T02:08:21;98922.72;;;18.33;43.89
33163;BME280;29282;45.656;11.302;2023-02-28T02:10:50;98922.72;;;18.33;43.78
33163;BME280;29282;45.656;11.302;2023-02-28T02:19:25;98923.22;;;18.35;43.81
33163;BME280;29282;45.656;11.302;2023-02-28T02:43:48;98914.16;;;18.34;43.90
33163;BME280;29282;45.656;11.302;2023-02-28T02:46:20;98917.41;;;18.36;43.86
33163;BME280;29282;45.656;11.302;2023-02-28T02:48:46;98917.72;;;18.35;43.98
33163;BME280;29282;45.656;11.302;2023-02-28T02:51:16;98927.56;;;18.36;43.82
33163;BME280;29282;45.656;11.302;2023-02-28T02:56:35;98924.03;;;18.35;43.91
33163;BME280;29282;45.656;11.302;2023-02-28T02:59:07;98919.63;;;18.34;43.48
33163;BME280;29282;45.656;11.302;2023-02-28T03:01:35;98915.00;;;18.35;43.70
33163;BME280;29282;45.656;11.302;2023-02-28T03:04:10;98924.31;;;18.34;43.83
33163;BME280;29282;45.656;11.302;2023-02-28T03:06:37;98918.03;;;18.33;43.80
33163;BME280;29282;45.656;11.302;2023-02-28T03:09:02;98913.34;;;18.34;43.65
33163;BME280;29282;45.656;11.302;2023-02-28T03:11:30;98907.84;;;18.34;43.92
33163;BME280;29282;45.656;11.302;2023-02-28T03:14:05;98893.69;;;18.31;43.76
33163;BME280;29282;45.656;11.302;2023-02-28T03:27:20;98904.31;;;18.33;43.79
33163;BME280;29282;45.656;11.302;2023-02-28T03:30:03;98901.25;;;18.35;43.63
33163;BME280;29282;45.656;11.302;2023-02-28T03:32:35;98902.88;;;18.36;43.88
33163;BME280;29282;45.656;11.302;2023-02-28T03:35:10;98902.06;;;18.35;43.78
33163;BME280;29282;45.656;11.302;2023-02-28T03:37:40;98894.66;;;18.36;43.94
33163;BME280;29282;45.656;11.302;2023-02-28T03:40:17;98898.19;;;18.36;43.72
33163;BME280;29282;45.656;11.302;2023-02-28T03:42:48;98893.84;;;18.35;43.71
33163;BME280;29282;45.656;11.302;2023-02-28T03:45:27;98891.09;;;18.35;44.02
33163;BME280;29282;45.656;11.302;2023-02-28T03:48:29;98894.94;;;18.34;43.80
33163;BME280;29282;45.656;11.302;2023-02-28T03:50:49;98893.84;;;18.35;43.80
33163;BME280;29282;45.656;11.302;2023-02-28T03:53:35;98886.72;;;18.34;43.84
33163;BME280;29282;45.656;11.302;2023-02-28T03:56:09;98890.28;;;18.35;43.62
33163;BME280;29282;45.656;11.302;2023-02-28T03:58:49;98883.16;;;18.34;43.68
33163;BME280;29282;45.656;11.302;2023-02-28T04:01:28;98885.13;;;18.33;43.58
33163;BME280;29282;45.656;11.302;2023-02-28T04:03:58;98884.31;;;18.33;43.71
33163;BME280;29282;45.656;11.302;2023-02-28T04:06:24;98884.31;;;18.33;43.89
33163;BME280;29282;45.656;11.302;2023-02-28T04:08:50;98884.31;;;18.33;43.79
33163;BME280;29282;45.656;11.302;2023-02-28T04:11:35;98882.69;;;18.31;43.76
33163;BME280;29282;45.656;11.302;2023-02-28T04:14:02;98879.97;;;18.31;43.89
33163;BME280;29282;45.656;11.302;2023-02-28T04:16:29;98879.16;;;18.31;43.76
33163;BME280;29282;45.656;11.302;2023-02-28T04:18:54;98887.38;;;18.31;43.83
33163;BME280;29282;45.656;11.302;2023-02-28T04:21:29;98890.44;;;18.29;43.90
33163;BME280;29282;45.656;11.302;2023-02-28T04:23:55;98891.56;;;18.28;43.74
33163;BME280;29282;45.656;11.302;2023-02-28T04:26:35;98889.63;;;18.29;43.79
33163;BME280;29282;45.656;11.302;2023-02-28T04:29:04;98889.63;;;18.29;43.64
33163;BME280;29282;45.656;11.302;2023-02-28T04:31:30;98892.38;;;18.29;43.68
33163;BME280;29282;45.656;11.302;2023-02-28T04:33:56;98895.91;;;18.29;43.61
33163;BME280;29282;45.656;11.302;2023-02-28T04:36:21;98888.81;;;18.28;43.63
33163;BME280;29282;45.656;11.302;2023-02-28T04:38:48;98892.38;;;18.29;44.06
33163;BME280;29282;45.656;11.302;2023-02-28T04:41:15;98898.66;;;18.29;43.84
33163;BME280;29282;45.656;11.302;2023-02-28T04:43:42;98895.13;;;18.29;43.74
33163;BME280;29282;45.656;11.302;2023-02-28T04:46:08;98893.97;;;18.30;43.83
33163;BME280;29282;45.656;11.302;2023-02-28T04:48:36;98888.19;;;18.31;43.79
33163;BME280;29282;45.656;11.302;2023-02-28T04:51:07;98894.78;;;18.30;43.57
33163;BME280;29282;45.656;11.302;2023-02-28T04:53:34;98898.34;;;18.31;43.71
33163;BME280;29282;45.656;11.302;2023-02-28T04:56:00;98892.88;;;18.31;43.73
33163;BME280;29282;45.656;11.302;2023-02-28T04:58:26;98893.69;;;18.31;43.70
33163;BME280;29282;45.656;11.302;2023-02-28T05:00:52;98888.19;;;18.31;43.68
33163;BME280;29282;45.656;11.302;2023-02-28T05:03:18;98903.50;;;18.33;43.61
33163;BME280;29282;45.656;11.302;2023-02-28T05:05:46;98898.81;;;18.33;43.59
33163;BME280;29282;45.656;11.302;2023-02-28T05:08:11;98904.31;;;18.33;43.57
33163;BME280;29282;45.656;11.302;2023-02-28T05:10:37;98904.00;;;18.35;43.64
33163;BME280;29282;45.656;11.302;2023-02-28T05:13:02;98902.38;;;18.34;43.68
33163;BME280;29282;45.656;11.302;2023-02-28T05:15:28;98908.66;;;18.34;43.71
33163;BME280;29282;45.656;11.302;2023-02-28T05:17:53;98898.53;;;18.35;43.65
33163;BME280;29282;45.656;11.302;2023-02-28T05:20:19;98899.63;;;18.34;43.61
33163;BME280;29282;45.656;11.302;2023-02-28T05:22:46;98904.31;;;18.33;43.60
33163;BME280;29282;45.656;11.302;2023-02-28T05:25:16;98893.69;;;18.31;43.50
33163;BME280;29282;45.656;11.302;2023-02-28T05:27:42;98898.19;;;18.36;43.69
33163;BME280;29282;45.656;11.302;2023-02-28T05:30:08;98902.72;;;18.41;43.17
33163;BME280;29282;45.656;11.302;2023-02-28T05:32:39;98898.53;;;18.43;43.09
33163;BME280;29282;45.656;11.302;2023-02-28T05:35:09;98904.34;;;18.42;43.13
33163;BME280;29282;45.656;11.302;2023-02-28T05:37:34;98906.28;;;18.41;43.10
33163;BME280;29282;45.656;11.302;2023-02-28T05:40:01;98903.53;;;18.41;42.82
33163;BME280;29282;45.656;11.302;2023-02-28T05:42:26;98903.53;;;18.41;42.83
33163;BME280;29282;45.656;11.302;2023-02-28T05:44:52;98905.16;;;18.42;42.81
33163;BME280;29282;45.656;11.302;2023-02-28T05:47:17;98906.75;;;18.43;42.84
33163;BME280;29282;45.656;11.302;2023-02-28T05:49:43;98902.41;;;18.42;43.01
33163;BME280;29282;45.656;11.302;2023-02-28T05:52:08;98905.94;;;18.43;42.87
33163;BME280;29282;45.656;11.302;2023-02-28T05:54:34;98904.34;;;18.42;43.04
33163;BME280;29282;45.656;11.302;2023-02-28T05:56:59;98907.09;;;18.42;43.13
33163;BME280;29282;45.656;11.302;2023-02-28T05:59:25;98903.22;;;18.43;43.01
33163;BME280;29282;45.656;11.302;2023-02-28T06:01:50;98906.75;;;18.43;43.06
33163;BME280;29282;45.656;11.302;2023-02-28T06:04:19;98911.44;;;18.43;42.98
33163;BME280;29282;45.656;11.302;2023-02-28T06:06:47;98905.94;;;18.43;43.09
33163;BME280;29282;45.656;11.302;2023-02-28T06:09:12;98902.06;;;18.44;42.94
33163;BME280;29282;45.656;11.302;2023-02-28T06:11:38;98905.94;;;18.43;43.20
33163;BME280;29282;45.656;11.302;2023-02-28T06:14:04;98900.97;;;18.45;42.82
33163;BME280;29282;45.656;11.302;2023-02-28T06:16:32;98901.28;;;18.43;43.12
33163;BME280;29282;45.656;11.302;2023-02-28T06:18:59;98910.00;;;18.45;42.84
33163;BME280;29282;45.656;11.302;2023-02-28T06:21:26;98911.94;;;18.45;42.93
33163;BME280;29282;45.656;11.302;2023-02-28T06:23:52;98913.22;;;18.47;42.80
33163;BME280;29282;45.656;11.302;2023-02-28T06:26:19;98916.28;;;18.46;42.81
33163;BME280;29282;45.656;11.302;2023-02-28T06:28:45;98911.94;;;18.45;42.95
33163;BME280;29282;45.656;11.302;2023-02-28T06:31:13;98923.72;;;18.45;43.00
33163;BME280;29282;45.656;11.302;2023-02-28T06:33:39;98920.34;;;18.48;42.79
33163;BME280;29282;45.656;11.302;2023-02-28T06:36:06;98922.59;;;18.46;42.83
33163;BME280;29282;45.656;11.302;2023-02-28T06:38:32;98917.59;;;18.48;42.67
33163;BME280;29282;45.656;11.302;2023-02-28T06:40:59;98921.44;;;18.47;42.80
33163;BME280;29282;45.656;11.302;2023-02-28T06:43:29;98915.03;;;18.52;42.56
33163;BME280;29282;45.656;11.302;2023-02-28T06:45:56;98926.28;;;18.50;42.57
33163;BME280;29282;45.656;11.302;2023-02-28T06:48:22;98925.50;;;18.50;42.64
33163;BME280;29282;45.656;11.302;2023-02-28T06:50:47;98930.69;;;18.51;42.73
33163;BME280;29282;45.656;11.302;2023-02-28T06:53:13;98924.84;;;18.53;42.62
33163;BME280;29282;45.656;11.302;2023-02-28T06:55:40;98930.69;;;18.51;42.65
33163;BME280;29282;45.656;11.302;2023-02-28T06:58:06;98939.72;;;18.52;42.71
33163;BME280;29282;45.656;11.302;2023-02-28T07:00:42;98936.34;;;18.55;42.65
33163;BME280;29282;45.656;11.302;2023-02-28T07:03:07;98936.50;;;18.59;42.44
33163;BME280;29282;45.656;11.302;2023-02-28T07:05:35;98939.06;;;18.55;42.79
33163;BME280;29282;45.656;11.302;2023-02-28T07:08:01;98938.75;;;18.57;42.80
33163;BME280;29282;45.656;11.302;2023-02-28T07:10:27;98936.34;;;18.55;42.75
33163;BME280;29282;45.656;11.302;2023-02-28T07:12:52;98938.56;;;18.53;42.98
33163;BME280;29282;45.656;11.302;2023-02-28T07:15:18;98947.44;;;18.50;42.89
33163;BME280;29282;45.656;11.302;2023-02-28T07:17:43;98944.69;;;18.50;42.81
33163;BME280;29282;45.656;11.302;2023-02-28T07:20:09;98943.09;;;18.49;42.95
33163;BME280;29282;45.656;11.302;2023-02-28T07:22:35;98949.72;;;18.48;42.96
33163;BME280;29282;45.656;11.302;2023-02-28T07:25:01;98944.22;;;18.48;42.84
33163;BME280;29282;45.656;11.302;2023-02-28T07:27:26;98939.03;;;18.46;42.72
33163;BME280;29282;45.656;11.302;2023-02-28T07:29:52;98940.66;;;18.47;42.78
33163;BME280;29282;45.656;11.302;2023-02-28T07:32:22;98945.34;;;18.47;42.83
33163;BME280;29282;45.656;11.302;2023-02-28T07:34:47;98936.31;;;18.46;42.78
33163;BME280;29282;45.656;11.302;2023-02-28T07:37:14;98945.34;;;18.47;42.71
33163;BME280;29282;45.656;11.302;2023-02-28T07:39:40;98941.50;;;18.48;42.58
33163;BME280;29282;45.656;11.302;2023-02-28T07:42:07;98940.34;;;18.49;42.87
33163;BME280;29282;45.656;11.302;2023-02-28T07:44:36;98940.84;;;18.51;42.58
33163;BME280;29282;45.656;11.302;2023-02-28T07:47:06;98943.09;;;18.49;42.77
33163;BME280;29282;45.656;11.302;2023-02-28T07:49:32;98941.66;;;18.51;42.62
33163;BME280;29282;45.656;11.302;2023-02-28T07:51:57;98940.03;;;18.50;42.73
33163;BME280;29282;45.656;11.302;2023-02-28T07:54:23;98936.47;;;18.50;42.74
33163;BME280;29282;45.656;11.302;2023-02-28T07:56:48;98940.03;;;18.50;42.69
33163;BME280;29282;45.656;11.302;2023-02-28T07:59:14;98939.22;;;18.50;42.57
33163;BME280;29282;45.656;11.302;2023-02-28T08:01:40;98945.84;;;18.49;42.66
33163;BME280;29282;45.656;11.302;2023-02-28T08:04:05;98945.84;;;18.49;42.64
33163;BME280;29282;45.656;11.302;2023-02-28T08:06:31;98940.66;;;18.47;42.68
33163;BME280;29282;45.656;11.302;2023-02-28T08:08:56;98941.50;;;18.48;42.69
33163;BME280;29282;45.656;11.302;2023-02-28T08:11:22;98945.84;;;18.49;42.71
33163;BME280;29282;45.656;11.302;2023-02-28T08:13:47;98939.53;;;18.48;42.78
33163;BME280;29282;45.656;11.302;2023-02-28T08:16:13;98939.53;;;18.48;42.51
33163;BME280;29282;45.656;11.302;2023-02-28T08:18:47;98947.44;;;18.50;42.67
33163;BME280;29282;45.656;11.302;2023-02-28T08:21:12;98946.97;;;18.48;42.68
33163;BME280;29282;45.656;11.302;2023-02-28T08:23:38;98948.59;;;18.49;42.78
33163;BME280;29282;45.656;11.302;2023-02-28T08:26:04;98947.94;;;18.52;42.66
33163;BME280;29282;45.656;11.302;2023-02-28T08:28:30;98945.50;;;18.50;42.61
33163;BME280;29282;45.656;11.302;2023-02-28T08:30:55;98947.44;;;18.50;42.81
33163;BME280;29282;45.656;11.302;2023-02-28T08:33:22;98951.63;;;18.47;42.60
33163;BME280;29282;45.656;11.302;2023-02-28T08:35:48;98957.94;;;18.48;42.81
33163;BME280;29282;45.656;11.302;2023-02-28T08:38:13;98955.22;;;18.48;42.68
33163;BME280;29282;45.656;11.302;2023-02-28T08:40:39;98953.25;;;18.48;42.65
33163;BME280;29282;45.656;11.302;2023-02-28T08:43:04;98961.16;;;18.50;42.65
33163;BME280;29282;45.656;11.302;2023-02-28T08:45:30;98949.72;;;18.48;42.56
33163;BME280;29282;45.656;11.302;2023-02-28T08:47:55;98954.06;;;18.49;42.58
33163;BME280;29282;45.656;11.302;2023-02-28T08:50:21;98945.84;;;18.49;42.55
33163;BME280;29282;45.656;11.302;2023-02-28T08:52:47;98954.38;;;18.47;42.67
33163;BME280;29282;45.656;11.302;2023-02-28T08:55:13;98954.38;;;18.47;42.66
33163;BME280;29282;45.656;11.302;2023-02-28T08:57:38;98951.31;;;18.49;42.75
33163;BME280;29282;45.656;11.302;2023-02-28T09:00:04;98949.72;;;18.48;42.49
33163;BME280;29282;45.656;11.302;2023-02-28T09:02:31;98955.22;;;18.48;42.46
33163;BME280;29282;45.656;11.302;2023-02-28T09:04:57;98948.09;;;18.47;42.25
33163;BME280;29282;45.656;11.302;2023-02-28T09:07:23;98957.94;;;18.48;42.70
33163;BME280;29282;45.656;11.302;2023-02-28T09:09:49;98942.59;;;18.47;42.61
33163;BME280;29282;45.656;11.302;2023-02-28T09:12:24;98943.09;;;18.49;42.80
33163;BME280;29282;45.656;11.302;2023-02-28T09:14:51;98950.53;;;18.48;42.59
33163;BME280;29282;45.656;11.302;2023-02-28T09:17:17;98957.94;;;18.48;42.60
33163;BME280;29282;45.656;11.302;2023-02-28T09:19:43;98953.56;;;18.47;42.49
33163;BME280;29282;45.656;11.302;2023-02-28T09:22:10;98957.94;;;18.48;42.50
33163;BME280;29282;45.656;11.302;2023-02-28T09:24:38;98958.41;;;18.50;42.51
33163;BME280;29282;45.656;11.302;2023-02-28T09:27:04;98956.81;;;18.49;42.59
33163;BME280;29282;45.656;11.302;2023-02-28T09:29:32;98956.00;;;18.48;42.74
33163;BME280;29282;45.656;11.302;2023-02-28T09:31:58;98959.84;;;18.47;42.54
33163;BME280;29282;45.656;11.302;2023-02-28T09:34:27;98958.41;;;18.50;42.16
33163;BME280;29282;45.656;11.302;2023-02-28T09:36:53;98958.41;;;18.50;42.36
33163;BME280;29282;45.656;11.302;2023-02-28T09:39:23;98959.84;;;18.47;42.65
33163;BME280;29282;45.656;11.302;2023-02-28T09:41:51;98953.91;;;18.45;42.41
33163;BME280;29282;45.656;11.302;2023-02-28T09:44:41;98954.72;;;18.46;42.48
33163;BME280;29282;45.656;11.302;2023-02-28T09:47:17;98958.25;;;18.46;42.60
33163;BME280;29282;45.656;11.302;2023-02-28T09:49:46;98959.38;;;18.45;42.50
33163;BME280;29282;45.656;11.302;2023-02-28T09:52:19;98960.19;;;18.46;42.27
33163;BME280;29282;45.656;11.302;2023-02-28T09:54:45;98959.84;;;18.47;42.43
33163;BME280;29282;45.656;11.302;2023-02-28T10:00:10;98966.81;;;18.45;42.49
33163;BME280;29282;45.656;11.302;2023-02-28T10:05:42;98964.53;;;19.30;40.39
33163;BME280;29282;45.656;11.302;2023-02-28T10:08:34;98954.00;;;19.76;39.41
33163;BME280;29282;45.656;11.302;2023-02-28T10:11:02;98958.75;;;20.05;38.78
33163;BME280;29282;45.656;11.302;2023-02-28T10:13:57;98947.38;;;20.24;38.40
33163;BME280;29282;45.656;11.302;2023-02-28T10:16:43;98943.59;;;20.37;38.47
33163;BME280;29282;45.656;11.302;2023-02-28T10:24:42;98948.66;;;20.56;37.92
33163;BME280;29282;45.656;11.302;2023-02-28T10:27:25;98945.59;;;20.57;38.07
33163;BME280;29282;45.656;11.302;2023-02-28T10:29:59;98940.75;;;20.46;38.35
33163;BME280;29282;45.656;11.302;2023-02-28T10:32:34;98950.88;;;20.33;38.67
33163;BME280;29282;45.656;11.302;2023-02-28T10:37:38;98940.91;;;20.58;38.38
33163;BME280;29282;45.656;11.302;2023-02-28T10:40:06;98943.94;;;20.65;38.17
33163;BME280;29282;45.656;11.302;2023-02-28T10:42:33;98943.13;;;20.64;38.26
33163;BME280;29282;45.656;11.302;2023-02-28T10:45:11;98938.81;;;20.46;38.42
33163;BME280;29282;45.656;11.302;2023-02-28T10:47:51;98934.59;;;20.49;38.44
33163;BME280;29282;45.656;11.302;2023-02-28T11:01:33;98936.84;;;20.55;38.61
33163;BME280;29282;45.656;11.302;2023-02-28T11:04:00;98936.94;;;20.68;38.38
33163;BME280;29282;45.656;11.302;2023-02-28T11:06:30;98938.81;;;20.76;38.25
33163;BME280;29282;45.656;11.302;2023-02-28T11:08:58;98931.41;;;20.76;38.40
33163;BME280;29282;45.656;11.302;2023-02-28T11:11:26;98927.63;;;20.60;38.46
33163;BME280;29282;45.656;11.302;2023-02-28T11:13:56;98920.03;;;20.57;38.88
33163;BME280;29282;45.656;11.302;2023-02-28T11:16:32;98925.13;;;20.67;38.64
33163;BME280;29282;45.656;11.302;2023-02-28T11:18:58;98920.03;;;20.78;38.36
33163;BME280;29282;45.656;11.302;2023-02-28T11:21:36;98912.38;;;20.83;38.40
33163;BME280;29282;45.656;11.302;2023-02-28T11:26:49;98917.88;;;20.62;39.01
33163;BME280;29282;45.656;11.302;2023-02-28T11:29:23;98906.97;;;20.66;38.75
33163;BME280;29282;45.656;11.302;2023-02-28T11:34:34;98896.31;;;20.85;38.34
33163;BME280;29282;45.656;11.302;2023-02-28T11:37:01;98899.19;;;20.89;38.49
33163;BME280;29282;45.656;11.302;2023-02-28T11:39:31;98897.88;;;20.74;38.78
33163;BME280;29282;45.656;11.302;2023-02-28T11:44:47;98883.75;;;20.76;38.98
33163;BME280;29282;45.656;11.302;2023-02-28T11:52:43;98870.66;;;20.73;39.00
33163;BME280;29282;45.656;11.302;2023-02-28T11:58:11;98860.88;;;20.84;38.86
33163;BME280;29282;45.656;11.302;2023-02-28T12:03:48;98865.09;;;20.81;38.88
33163;BME280;29282;45.656;11.302;2023-02-28T12:06:25;98856.56;;;20.74;39.18
33163;BME280;29282;45.656;11.302;2023-02-28T12:16:46;98837.03;;;20.67;39.65
33163;BME280;29282;45.656;11.302;2023-02-28T12:26:40;98830.81;;;19.99;41.34
33163;BME280;29282;45.656;11.302;2023-02-28T12:29:28;98825.81;;;19.92;41.18
33163;BME280;29282;45.656;11.302;2023-02-28T12:32:01;98826.72;;;19.75;41.36
33163;BME280;29282;45.656;11.302;2023-02-28T12:34:41;98823.00;;;19.62;41.75
33163;BME280;29282;45.656;11.302;2023-02-28T12:37:24;98813.34;;;19.56;41.82
33163;BME280;29282;45.656;11.302;2023-02-28T12:40:00;98810.78;;;19.51;41.99
33163;BME280;29282;45.656;11.302;2023-02-28T12:42:41;98803.50;;;19.46;42.13
33163;BME280;29282;45.656;11.302;2023-02-28T12:45:19;98798.66;;;19.43;42.12
33163;BME280;29282;45.656;11.302;2023-02-28T12:47:59;98800.16;;;19.41;42.15
33163;BME280;29282;45.656;11.302;2023-02-28T12:50:29;98796.13;;;19.38;42.28
33163;BME280;29282;45.656;11.302;2023-02-28T12:53:09;98795.63;;;19.36;42.37
33163;BME280;29282;45.656;11.302;2023-02-28T12:58:41;98795.00;;;19.31;42.43
33163;BME280;29282;45.656;11.302;2023-02-28T13:09:38;98779.69;;;19.21;42.55
33163;BME280;29282;45.656;11.302;2023-02-28T13:12:23;98790.19;;;19.19;42.68
33163;BME280;29282;45.656;11.302;2023-02-28T13:14:50;98783.09;;;19.18;42.67
33163;BME280;29282;45.656;11.302;2023-02-28T13:17:20;98777.91;;;19.16;42.66
33163;BME280;29282;45.656;11.302;2023-02-28T13:19:57;98775.16;;;19.16;42.78
33163;BME280;29282;45.656;11.302;2023-02-28T13:22:43;98772.44;;;19.08;42.89
33163;BME280;29282;45.656;11.302;2023-02-28T13:25:50;98771.00;;;19.01;42.96
33163;BME280;29282;45.656;11.302;2023-02-28T13:29:06;98766.47;;;18.97;43.08
33163;BME280;29282;45.656;11.302;2023-02-28T13:31:25;98769.88;;;18.94;43.24
33163;BME280;29282;45.656;11.302;2023-02-28T13:36:26;98764.56;;;18.89;43.04
33163;BME280;29282;45.656;11.302;2023-02-28T13:41:47;98754.09;;;18.82;43.20
33163;BME280;29282;45.656;11.302;2023-02-28T13:51:51;98767.16;;;18.76;43.08
33163;BME280;29282;45.656;11.302;2023-02-28T14:08:50;98759.69;;;19.03;42.41
33163;BME280;29282;45.656;11.302;2023-02-28T14:11:33;98748.88;;;19.45;41.47
33163;BME280;29282;45.656;11.302;2023-02-28T14:13:59;98741.13;;;19.77;40.77
33163;BME280;29282;45.656;11.302;2023-02-28T14:16:28;98736.09;;;20.08;40.29
33163;BME280;29282;45.656;11.302;2023-02-28T14:19:03;98736.16;;;20.00;40.57
33163;BME280;29282;45.656;11.302;2023-02-28T14:21:34;98741.50;;;19.75;40.96
33163;BME280;29282;45.656;11.302;2023-02-28T14:26:53;98737.97;;;19.28;41.91
33163;BME280;29282;45.656;11.302;2023-02-28T14:32:21;98735.63;;;19.00;42.60
33163;BME280;29282;45.656;11.302;2023-02-28T14:34:55;98722.94;;;19.25;42.00
33163;BME280;29282;45.656;11.302;2023-02-28T14:37:32;98731.75;;;19.39;41.51
33163;BME280;29282;45.656;11.302;2023-02-28T14:40:00;98735.19;;;19.36;41.83
33163;BME280;29282;45.656;11.302;2023-02-28T14:42:30;98729.59;;;19.24;42.00
33163;BME280;29282;45.656;11.302;2023-02-28T14:44:56;98729.47;;;19.12;42.20
33163;BME280;29282;45.656;11.302;2023-02-28T14:47:23;98729.16;;;19.05;42.49
33163;BME280;29282;45.656;11.302;2023-02-28T14:49:51;98723.75;;;19.25;42.04
33163;BME280;29282;45.656;11.302;2023-02-28T14:52:21;98722.72;;;19.39;41.76
33163;BME280;29282;45.656;11.302;2023-02-28T14:54:53;98722.94;;;19.34;41.78
33163;BME280;29282;45.656;11.302;2023-02-28T14:57:34;98718.44;;;19.20;41.97
33163;BME280;29282;45.656;11.302;2023-02-28T15:02:29;98724.47;;;19.05;42.58
33163;BME280;29282;45.656;11.302;2023-02-28T15:04:58;98718.25;;;19.25;42.01
33163;BME280;29282;45.656;11.302;2023-02-28T15:07:25;98708.03;;;19.35;41.71
33163;BME280;29282;45.656;11.302;2023-02-28T15:10:26;98716.78;;;19.28;41.96
33163;BME280;29282;45.656;11.302;2023-02-28T15:12:55;98713.13;;;19.15;42.10
33163;BME280;29282;45.656;11.302;2023-02-28T15:15:24;98718.50;;;19.03;42.34
33163;BME280;29282;45.656;11.302;2023-02-28T15:17:53;98714.78;;;19.08;42.43
33163;BME280;29282;45.656;11.302;2023-02-28T15:20:21;98705.16;;;19.31;41.94
33163;BME280;29282;45.656;11.302;2023-02-28T15:22:50;98705.59;;;19.33;41.80
33163;BME280;29282;45.656;11.302;2023-02-28T15:25:20;98717.47;;;19.25;41.95
33163;BME280;29282;45.656;11.302;2023-02-28T15:27:53;98713.78;;;19.12;42.13
33163;BME280;29282;45.656;11.302;2023-02-28T15:30:27;98709.78;;;19.01;42.42